Time;durP1;ratioP1;P1;durP2;ratioP2;P2;SDS_P1;SDS_P2;PMS_P1;PMS_P2;Temp;Humidity;BMP_temperature;BMP_pressure;BME280_temperature;BME280_humidity;BME280_pressure;Samples;Min_cycle;Max_cycle;Signal;HPM_P1;HPM_P2
2021/12/28 00:00:08;;;;;;;50.92;35.08;;;5.50;99.90;;;;;;5009941;28;20045;-81
2021/12/28 00:02:39;;;;;;;51.35;32.67;;;5.60;99.90;;;;;;5023658;28;20041;-81
2021/12/28 00:05:06;;;;;;;50.70;35.47;;;5.60;99.90;;;;;;5011442;28;20143;-81
2021/12/28 00:07:33;;;;;;;55.03;35.05;;;5.60;99.90;;;;;;5028129;28;20096;-81
2021/12/28 00:09:59;;;;;;;53.95;34.95;;;5.50;99.90;;;;;;4979127;28;20164;-81
2021/12/28 00:12:28;;;;;;;55.25;36.70;;;5.50;99.90;;;;;;5012636;28;20042;-80
2021/12/28 00:15:07;;;;;;;56.75;36.13;;;5.60;99.90;;;;;;5025160;28;20493;-82
2021/12/28 00:20:19;;;;;;;54.42;35.65;;;5.60;99.90;;;;;;5018120;28;20052;-80
2021/12/28 00:22:45;;;;;;;51.88;34.55;;;5.50;99.90;;;;;;5015535;28;20047;-81
2021/12/28 00:25:11;;;;;;;57.30;38.72;;;5.50;99.90;;;;;;4995552;28;20038;-81
2021/12/28 00:27:38;;;;;;;62.05;37.78;;;5.50;99.90;;;;;;4993316;28;20049;-80
2021/12/28 00:30:06;;;;;;;62.90;38.38;;;5.50;99.90;;;;;;5022896;28;20420;-80
2021/12/28 00:32:33;;;;;;;66.35;40.17;;;5.50;99.90;;;;;;5024304;28;20046;-80
2021/12/28 00:34:59;;;;;;;68.05;41.25;;;5.50;99.90;;;;;;5016494;28;20148;-81
2021/12/28 00:37:25;;;;;;;74.07;42.88;;;5.50;99.90;;;;;;4984169;28;20057;-81
2021/12/28 00:39:51;;;;;;;67.63;41.78;;;5.50;99.90;;;;;;5000719;28;20097;-80
2021/12/28 00:42:17;;;;;;;66.47;41.40;;;5.50;99.90;;;;;;5027232;28;20043;-80
2021/12/28 00:44:43;;;;;;;67.40;42.67;;;5.50;99.90;;;;;;4984922;28;20052;-80
2021/12/28 00:47:10;;;;;;;72.03;43.22;;;5.50;99.90;;;;;;5027277;28;20034;-80
2021/12/28 00:49:36;;;;;;;85.70;44.05;;;5.50;99.90;;;;;;5009796;28;20041;-81
2021/12/28 00:52:02;;;;;;;81.95;45.90;;;5.50;99.90;;;;;;4993613;28;20057;-80
2021/12/28 00:54:28;;;;;;;80.10;44.15;;;5.50;99.90;;;;;;5006333;28;20494;-81
2021/12/28 00:56:54;;;;;;;80.18;46.13;;;5.50;99.90;;;;;;4976606;28;20049;-80
2021/12/28 00:59:21;;;;;;;78.20;46.42;;;5.50;99.90;;;;;;5010052;28;20072;-81
2021/12/28 01:01:47;;;;;;;90.57;46.45;;;5.60;99.90;;;;;;5023236;28;20124;-81
2021/12/28 01:04:14;;;;;;;101.63;50.17;;;5.50;99.90;;;;;;5010772;28;20049;-81
2021/12/28 01:06:41;;;;;;;106.00;50.38;;;5.60;99.90;;;;;;5008270;28;20041;-80
2021/12/28 01:09:07;;;;;;;100.28;48.88;;;5.60;99.90;;;;;;4993124;28;20103;-80
2021/12/28 01:11:33;;;;;;;108.63;48.35;;;5.60;99.90;;;;;;5011503;28;20052;-81
2021/12/28 01:13:59;;;;;;;111.05;50.92;;;5.60;99.90;;;;;;5009691;28;20045;-80
2021/12/28 01:16:25;;;;;;;114.07;52.53;;;5.60;99.90;;;;;;5004341;28;20107;-80
2021/12/28 01:18:51;;;;;;;151.27;56.10;;;5.60;99.90;;;;;;5026773;28;20049;-80
2021/12/28 01:21:19;;;;;;;127.47;53.20;;;5.70;99.90;;;;;;4977715;28;20053;-80
2021/12/28 01:23:45;;;;;;;149.00;55.92;;;5.70;99.90;;;;;;4993131;28;20042;-80
2021/12/28 01:26:11;;;;;;;133.27;57.13;;;5.70;99.90;;;;;;4976857;28;20123;-81
2021/12/28 01:28:37;;;;;;;146.77;59.30;;;5.70;99.90;;;;;;5008272;28;20047;-81
2021/12/28 01:31:04;;;;;;;177.30;60.13;;;5.70;99.90;;;;;;4991038;28;20044;-80
2021/12/28 01:33:31;;;;;;;188.15;62.17;;;5.70;99.90;;;;;;5010649;28;20041;-80
2021/12/28 01:35:58;;;;;;;208.38;65.40;;;5.70;99.90;;;;;;4981050;28;20040;-81
2021/12/28 01:38:25;;;;;;;194.57;60.28;;;5.80;99.90;;;;;;4995734;28;20626;-80
2021/12/28 01:40:53;;;;;;;176.32;60.67;;;5.70;99.90;;;;;;4994330;28;20041;-80
2021/12/28 01:43:22;;;;;;;288.25;70.88;;;5.80;99.90;;;;;;5013831;28;20049;-80
2021/12/28 01:46:08;;;;;;;279.08;70.30;;;5.80;99.90;;;;;;5020571;28;20041;-81
2021/12/28 01:48:40;;;;;;;285.65;71.50;;;5.80;99.90;;;;;;5014531;28;20416;-80
2021/12/28 01:51:12;;;;;;;331.45;77.43;;;5.80;99.90;;;;;;5015119;28;20083;-80
2021/12/28 01:53:39;;;;;;;;;;;5.80;99.90;;;;;;5006246;28;20042;-81
2021/12/28 01:56:13;;;;;;;351.50;73.03;;;5.80;99.90;;;;;;4995291;28;19917;-81
2021/12/28 01:58:40;;;;;;;584.25;93.00;;;5.80;99.90;;;;;;4999856;28;20048;-81
2021/12/28 02:01:07;;;;;;;609.35;95.38;;;5.80;99.90;;;;;;4980107;28;20041;-81
2021/12/28 02:03:35;;;;;;;739.03;107.20;;;5.90;99.90;;;;;;5003486;28;20037;-81
2021/12/28 02:06:01;;;;;;;427.30;86.93;;;5.80;99.90;;;;;;5029925;28;20390;-81
2021/12/28 02:08:28;;;;;;;727.03;103.65;;;5.90;99.90;;;;;;5013651;28;20061;-81
2021/12/28 02:10:56;;;;;;;648.30;101.30;;;5.90;99.90;;;;;;5022005;28;20838;-81
2021/12/28 02:13:24;;;;;;;334.27;75.05;;;5.90;99.90;;;;;;4992905;28;20644;-81
2021/12/28 02:15:51;;;;;;;466.63;92.65;;;5.90;99.90;;;;;;4995668;28;20370;-80
2021/12/28 02:18:23;;;;;;;566.13;93.72;;;6.00;99.90;;;;;;5013427;28;20045;-80
2021/12/28 02:20:50;;;;;;;578.65;97.30;;;6.00;99.90;;;;;;4996327;28;20044;-80
2021/12/28 02:23:17;;;;;;;810.80;110.55;;;6.00;99.90;;;;;;4996412;28;20045;-80
2021/12/28 02:25:44;;;;;;;551.10;92.53;;;6.00;99.90;;;;;;5002819;28;20049;-81
2021/12/28 02:28:12;;;;;;;664.78;103.80;;;6.00;99.90;;;;;;4996946;28;20492;-80
2021/12/28 02:30:41;;;;;;;872.03;121.60;;;6.10;99.90;;;;;;5018207;28;20464;-81
2021/12/28 02:33:08;;;;;;;672.10;101.13;;;6.00;99.90;;;;;;5005439;28;20053;-80
2021/12/28 02:35:35;;;;;;;809.45;113.70;;;6.10;99.90;;;;;;4980316;28;20030;-81
2021/12/28 02:38:02;;;;;;;569.47;96.60;;;6.10;99.90;;;;;;5017752;28;20053;-80
2021/12/28 02:40:31;;;;;;;352.58;81.72;;;6.00;99.90;;;;;;5014695;28;20935;-81
2021/12/28 02:42:59;;;;;;;405.17;87.15;;;6.10;99.90;;;;;;5033979;28;20100;-80
2021/12/28 02:45:28;;;;;;;389.02;82.68;;;6.20;99.90;;;;;;5011891;28;20119;-81
2021/12/28 02:47:54;;;;;;;394.23;83.90;;;6.20;99.90;;;;;;5033084;28;20045;-81
2021/12/28 02:50:30;;;;;;;369.33;80.57;;;6.20;99.90;;;;;;5014744;28;20036;-81
2021/12/28 02:52:57;;;;;;;277.83;74.03;;;6.20;99.90;;;;;;4998995;28;20053;-81
2021/12/28 02:55:27;;;;;;;297.08;75.60;;;6.20;99.90;;;;;;4982680;28;20051;-81
2021/12/28 02:57:57;;;;;;;255.45;73.55;;;6.20;99.90;;;;;;5019177;28;20505;-81
2021/12/28 03:00:42;;;;;;;192.60;62.80;;;6.20;99.90;;;;;;5027567;28;20049;-80
2021/12/28 03:03:14;;;;;;;220.48;69.13;;;6.30;99.90;;;;;;4995799;28;20053;-81
2021/12/28 03:05:42;;;;;;;229.13;69.03;;;6.40;99.90;;;;;;5018234;28;20056;-81
2021/12/28 03:08:10;;;;;;;205.65;67.80;;;6.40;99.90;;;;;;4995846;28;20118;-81
2021/12/28 03:10:37;;;;;;;225.43;69.82;;;6.40;99.90;;;;;;5011732;28;20559;-81
2021/12/28 03:13:04;;;;;;;204.25;68.75;;;6.40;99.90;;;;;;5014418;28;20052;-80
2021/12/28 03:15:30;;;;;;;214.00;66.20;;;6.40;99.90;;;;;;5004274;28;20486;-81
2021/12/28 03:17:57;;;;;;;200.60;62.38;;;6.50;99.90;;;;;;4976990;28;20065;-81
2021/12/28 03:20:23;;;;;;;193.73;62.75;;;6.40;99.90;;;;;;4974537;28;20482;-81
2021/12/28 03:22:49;;;;;;;183.25;59.00;;;6.50;99.90;;;;;;4995280;28;20053;-80
2021/12/28 03:25:15;;;;;;;194.02;60.20;;;6.50;99.90;;;;;;4980837;28;20049;-80
2021/12/28 03:27:43;;;;;;;217.93;64.82;;;6.40;99.90;;;;;;5002269;28;20041;-81
2021/12/28 03:30:12;;;;;;;191.70;63.90;;;6.50;99.90;;;;;;5046706;28;20144;-81
2021/12/28 03:32:39;;;;;;;215.18;67.18;;;6.40;99.90;;;;;;5007077;28;20659;-81
2021/12/28 03:35:08;;;;;;;174.02;62.33;;;6.40;99.90;;;;;;4991301;28;20084;-81
2021/12/28 03:37:35;;;;;;;175.40;61.58;;;6.40;99.90;;;;;;5012792;28;20041;-81
2021/12/28 03:40:04;;;;;;;166.02;59.75;;;6.40;99.90;;;;;;5020198;28;20081;-81
2021/12/28 03:42:30;;;;;;;186.35;61.92;;;6.50;99.90;;;;;;5018307;28;20053;-80
2021/12/28 03:44:56;;;;;;;221.95;64.70;;;6.40;99.90;;;;;;5016101;28;20420;-80
2021/12/28 03:47:22;;;;;;;196.15;63.03;;;6.40;99.90;;;;;;5005569;28;20648;-81
2021/12/28 03:49:49;;;;;;;179.85;62.10;;;6.40;99.90;;;;;;4966715;28;20110;-80
2021/12/28 03:52:15;;;;;;;172.10;58.80;;;6.40;99.90;;;;;;5013144;28;20049;-80
2021/12/28 03:54:41;;;;;;;175.82;60.55;;;6.40;99.90;;;;;;4998701;28;20037;-81
2021/12/28 03:57:07;;;;;;;188.27;62.33;;;6.40;99.90;;;;;;5026601;28;20057;-80
2021/12/28 03:59:35;;;;;;;178.57;58.63;;;6.40;99.90;;;;;;4980124;28;20045;-80
2021/12/28 04:02:01;;;;;;;137.13;54.70;;;6.40;99.90;;;;;;4983742;28;20053;-81
2021/12/28 04:04:27;;;;;;;161.23;59.28;;;6.40;99.90;;;;;;4999677;28;20586;-81
2021/12/28 04:06:53;;;;;;;176.85;62.88;;;6.50;99.90;;;;;;4998132;28;20049;-80
2021/12/28 04:09:33;;;;;;;181.77;58.25;;;6.40;99.90;;;;;;4996909;28;20056;-80
2021/12/28 04:12:00;;;;;;;191.50;61.88;;;6.40;99.90;;;;;;4999964;28;20110;-81
2021/12/28 04:14:26;;;;;;;227.82;65.88;;;6.40;99.90;;;;;;4982686;28;20397;-81
2021/12/28 04:16:52;;;;;;;271.17;70.68;;;6.30;99.90;;;;;;5025624;28;20147;-81
2021/12/28 04:19:18;;;;;;;308.70;71.38;;;6.30;99.90;;;;;;5005935;28;20536;-80
2021/12/28 04:21:44;;;;;;;409.70;79.88;;;6.20;99.90;;;;;;4994216;28;20129;-81
2021/12/28 04:24:10;;;;;;;351.80;74.25;;;6.20;99.90;;;;;;5024102;28;20084;-80
2021/12/28 04:26:36;;;;;;;246.98;63.75;;;6.20;99.90;;;;;;4985727;28;20041;-81
2021/12/28 04:29:02;;;;;;;270.95;67.32;;;6.10;99.90;;;;;;4996456;28;20077;-80
2021/12/28 04:31:28;;;;;;;406.90;74.10;;;6.20;99.90;;;;;;4976331;28;20140;-80
2021/12/28 04:33:54;;;;;;;286.67;69.43;;;6.10;99.90;;;;;;4960548;28;20049;-81
2021/12/28 04:36:20;;;;;;;374.88;72.97;;;6.10;99.90;;;;;;5001417;28;20033;-80
2021/12/28 04:38:47;;;;;;;284.25;67.68;;;6.00;99.90;;;;;;5012087;28;20052;-80
2021/12/28 04:41:13;;;;;;;231.57;62.85;;;6.00;99.90;;;;;;4993238;28;20095;-80
2021/12/28 04:43:40;;;;;;;282.08;65.22;;;6.00;99.90;;;;;;4994177;28;20045;-80
2021/12/28 04:46:06;;;;;;;206.15;57.03;;;5.90;99.90;;;;;;5011606;28;20040;-80
2021/12/28 04:48:33;;;;;;;191.55;55.38;;;5.90;99.90;;;;;;4989518;28;20057;-81
2021/12/28 04:51:00;;;;;;;217.95;58.03;;;6.00;99.90;;;;;;5000797;28;20509;-80
2021/12/28 04:53:26;;;;;;;183.30;55.42;;;5.90;99.90;;;;;;5009715;28;20045;-80
2021/12/28 04:55:52;;;;;;;179.40;54.42;;;5.90;99.90;;;;;;4981505;28;20077;-81
2021/12/28 04:58:19;;;;;;;184.60;56.30;;;5.90;99.90;;;;;;5025441;28;20064;-81
2021/12/28 05:00:49;;;;;;;157.00;52.75;;;5.90;99.90;;;;;;5013341;28;20128;-80
2021/12/28 05:03:16;;;;;;;184.48;53.78;;;5.90;99.90;;;;;;5016817;28;20059;-81
2021/12/28 05:05:46;;;;;;;176.23;51.83;;;5.90;99.90;;;;;;5013533;28;20128;-81
2021/12/28 05:08:14;;;;;;;156.73;51.65;;;5.90;99.90;;;;;;5041511;28;20049;-81
2021/12/28 05:10:41;;;;;;;150.23;49.13;;;6.00;99.90;;;;;;4978081;28;20053;-81
2021/12/28 05:13:08;;;;;;;148.35;51.72;;;6.00;99.90;;;;;;4977412;28;20088;-81
2021/12/28 05:15:35;;;;;;;127.07;45.92;;;6.00;99.90;;;;;;4993515;28;20097;-81
2021/12/28 05:18:02;;;;;;;129.48;46.28;;;6.00;99.90;;;;;;5001963;28;20045;-81
2021/12/28 05:20:29;;;;;;;123.15;46.30;;;6.00;99.90;;;;;;4993681;28;20480;-81
2021/12/28 05:22:55;;;;;;;120.10;45.88;;;6.00;99.90;;;;;;4998008;28;20088;-80
2021/12/28 05:25:21;;;;;;;105.32;43.60;;;6.00;99.90;;;;;;4976901;28;20099;-81
2021/12/28 05:27:47;;;;;;;104.50;40.90;;;6.00;99.90;;;;;;5009653;28;20131;-81
2021/12/28 05:30:14;;;;;;;122.35;45.72;;;6.00;99.90;;;;;;4989978;28;20046;-80
2021/12/28 05:32:40;;;;;;;113.13;44.42;;;6.00;99.90;;;;;;5018886;28;20053;-81
2021/12/28 05:35:08;;;;;;;111.15;44.67;;;6.00;99.90;;;;;;4983611;28;20056;-81
2021/12/28 05:37:36;;;;;;;98.72;41.47;;;6.00;99.90;;;;;;5020312;28;20034;-81
2021/12/28 05:40:03;;;;;;;103.18;43.70;;;6.00;99.90;;;;;;5007548;28;20489;-81
2021/12/28 05:42:29;;;;;;;100.20;42.75;;;6.00;99.90;;;;;;5021954;28;20048;-81
2021/12/28 05:44:55;;;;;;;92.50;40.35;;;6.00;99.90;;;;;;5019857;28;20052;-80
2021/12/28 05:47:21;;;;;;;97.47;39.92;;;6.10;99.90;;;;;;4978235;28;20088;-80
2021/12/28 05:49:47;;;;;;;91.35;40.10;;;6.00;99.90;;;;;;5012549;28;20069;-80
2021/12/28 05:52:14;;;;;;;92.53;41.22;;;6.10;99.90;;;;;;4999217;28;20077;-80
2021/12/28 05:54:40;;;;;;;92.65;39.65;;;6.00;99.90;;;;;;4999329;28;20041;-80
2021/12/28 05:57:07;;;;;;;67.80;35.10;;;5.90;99.90;;;;;;5027870;28;20041;-80
2021/12/28 05:59:34;;;;;;;77.50;36.25;;;5.90;99.90;;;;;;5010970;28;20048;-80
2021/12/28 06:02:00;;;;;;;76.57;35.45;;;5.80;99.90;;;;;;5012197;28;20049;-80
2021/12/28 06:04:26;;;;;;;80.10;35.97;;;5.70;99.90;;;;;;4999900;28;20050;-81
2021/12/28 06:06:53;;;;;;;73.05;33.90;;;5.60;99.90;;;;;;5018500;28;20520;-80
2021/12/28 06:09:19;;;;;;;67.80;33.67;;;5.60;99.90;;;;;;4979805;28;20041;-80
2021/12/28 06:11:45;;;;;;;70.60;32.78;;;5.50;99.90;;;;;;4964050;28;20515;-79
2021/12/28 06:14:11;;;;;;;73.13;35.72;;;5.60;99.90;;;;;;5011751;28;20049;-80
2021/12/28 06:16:38;;;;;;;80.93;36.58;;;5.60;99.90;;;;;;4995990;28;20114;-80
2021/12/28 06:19:06;;;;;;;80.38;35.50;;;5.60;99.90;;;;;;4981230;28;20049;-80
2021/12/28 06:21:33;;;;;;;74.03;34.80;;;5.60;99.90;;;;;;4980330;28;20041;-80
2021/12/28 06:24:01;;;;;;;72.63;34.50;;;5.60;99.90;;;;;;5006297;28;20196;-80
2021/12/28 06:26:29;;;;;;;66.72;33.95;;;5.60;99.90;;;;;;5027881;28;20048;-87
2021/12/28 06:28:56;;;;;;;71.40;33.30;;;5.70;99.90;;;;;;4997024;28;20128;-80
2021/12/28 06:31:28;;;;;;;67.97;33.15;;;5.70;99.90;;;;;;4979485;28;20041;-83
2021/12/28 06:33:56;;;;;;;74.57;32.78;;;5.70;99.90;;;;;;5010844;28;20140;-85
2021/12/28 06:36:22;;;;;;;65.78;30.88;;;5.70;99.90;;;;;;4998746;28;20068;-85
2021/12/28 06:38:50;;;;;;;69.43;30.75;;;5.80;99.90;;;;;;5015441;28;20038;-85
2021/12/28 06:41:17;;;;;;;60.92;29.15;;;5.80;99.90;;;;;;5002841;28;20394;-85
2021/12/28 06:43:43;;;;;;;69.20;30.92;;;5.90;99.90;;;;;;5022873;28;20049;-86
2021/12/28 06:46:10;;;;;;;64.72;29.70;;;5.90;99.90;;;;;;4980274;28;20201;-84
2021/12/28 06:48:36;;;;;;;59.40;29.40;;;5.90;99.90;;;;;;4963465;28;20044;-83
2021/12/28 06:51:03;;;;;;;49.53;27.67;;;6.10;99.90;;;;;;4995947;28;20076;-86
2021/12/28 06:53:29;;;;;;;53.45;26.60;;;6.00;99.90;;;;;;4979913;28;20217;-85
2021/12/28 06:55:55;;;;;;;52.10;27.52;;;6.00;99.90;;;;;;5012704;28;20030;-87
2021/12/28 06:58:21;;;;;;;47.85;27.90;;;6.00;99.90;;;;;;4987392;28;20049;-85
2021/12/28 07:00:47;;;;;;;44.15;24.02;;;6.00;99.90;;;;;;5008883;28;20052;-85
2021/12/28 07:03:13;;;;;;;47.70;24.83;;;6.00;99.90;;;;;;4990480;28;20048;-78
2021/12/28 07:05:40;;;;;;;43.92;25.35;;;6.00;99.90;;;;;;5021542;28;20064;-82
2021/12/28 07:08:06;;;;;;;40.78;22.55;;;6.00;99.90;;;;;;4990273;28;20132;-83
2021/12/28 07:10:32;;;;;;;43.22;22.35;;;5.90;99.90;;;;;;5023295;28;20042;-83
2021/12/28 07:12:58;;;;;;;41.95;23.00;;;6.00;99.90;;;;;;4984073;28;20202;-82
2021/12/28 07:15:25;;;;;;;41.13;22.05;;;6.00;99.90;;;;;;4970839;28;20042;-79
2021/12/28 07:17:52;;;;;;;37.28;22.42;;;6.10;99.90;;;;;;5012544;28;20037;-79
2021/12/28 07:20:19;;;;;;;38.58;20.92;;;6.00;99.90;;;;;;4972863;28;20041;-79
2021/12/28 07:22:45;;;;;;;36.70;23.15;;;6.00;99.90;;;;;;4994745;28;20049;-79
2021/12/28 07:25:11;;;;;;;37.35;21.33;;;6.00;99.90;;;;;;4994601;28;20144;-79
2021/12/28 07:27:38;;;;;;;39.10;20.40;;;6.00;99.90;;;;;;4986882;28;20045;-79
2021/12/28 07:30:08;;;;;;;33.50;19.45;;;6.00;99.90;;;;;;4993673;28;20359;-79
2021/12/28 07:32:35;;;;;;;40.83;21.45;;;6.00;99.90;;;;;;4990050;28;20068;-82
2021/12/28 07:35:01;;;;;;;38.78;21.00;;;6.00;99.90;;;;;;5005482;28;20812;-82
2021/12/28 07:37:28;;;;;;;34.55;19.67;;;6.00;99.90;;;;;;5007022;28;20807;-84
2021/12/28 07:39:54;;;;;;;33.38;17.83;;;6.10;99.90;;;;;;4980658;28;20034;-81
2021/12/28 07:42:20;;;;;;;31.83;20.42;;;6.00;99.90;;;;;;4978233;28;20674;-82
2021/12/28 07:44:47;;;;;;;31.70;18.30;;;6.10;99.90;;;;;;4992956;28;20041;-83
2021/12/28 07:47:13;;;;;;;32.70;18.25;;;6.10;99.90;;;;;;4984599;28;20048;-81
2021/12/28 07:49:39;;;;;;;32.30;20.23;;;6.10;99.90;;;;;;5008188;28;20092;-80
2021/12/28 07:52:06;;;;;;;31.52;17.45;;;6.00;99.90;;;;;;5010852;28;20053;-79
2021/12/28 07:54:32;;;;;;;32.03;18.38;;;6.10;99.90;;;;;;5021597;28;20050;-80
2021/12/28 07:56:58;;;;;;;34.28;19.48;;;6.10;99.90;;;;;;5001422;28;20065;-79
2021/12/28 07:59:25;;;;;;;33.70;19.80;;;6.10;99.90;;;;;;4997657;28;20497;-83
2021/12/28 08:01:51;;;;;;;35.50;19.15;;;6.00;99.90;;;;;;5009267;28;20644;-80
2021/12/28 08:04:17;;;;;;;30.92;19.90;;;6.00;99.90;;;;;;4994877;28;20042;-78
2021/12/28 08:06:44;;;;;;;35.63;19.40;;;6.00;99.90;;;;;;4982635;28;20085;-80
2021/12/28 08:09:10;;;;;;;32.58;18.65;;;6.10;99.90;;;;;;5004493;28;20125;-81
2021/12/28 08:11:37;;;;;;;34.50;18.83;;;6.10;99.90;;;;;;4993378;28;20060;-80
2021/12/28 08:14:04;;;;;;;36.47;18.50;;;6.10;99.90;;;;;;4994963;28;20166;-78
2021/12/28 08:16:31;;;;;;;32.22;17.58;;;6.00;99.90;;;;;;5009652;28;20060;-80
2021/12/28 08:18:57;;;;;;;32.28;18.00;;;6.00;99.90;;;;;;4994595;28;20053;-81
2021/12/28 08:21:23;;;;;;;31.92;18.45;;;6.00;99.90;;;;;;4995139;28;20171;-82
2021/12/28 08:23:49;;;;;;;35.70;19.75;;;6.00;99.90;;;;;;5012658;28;20099;-81
2021/12/28 08:26:16;;;;;;;31.88;18.52;;;6.00;99.90;;;;;;5010959;28;20188;-80
2021/12/28 08:28:43;;;;;;;48.05;29.55;;;6.00;99.90;;;;;;4977887;28;20056;-80
2021/12/28 08:31:09;;;;;;;29.90;17.48;;;6.00;99.90;;;;;;5035236;28;20049;-80
2021/12/28 08:33:35;;;;;;;34.75;17.63;;;6.00;99.90;;;;;;4981509;28;20494;-80
2021/12/28 08:36:02;;;;;;;33.33;17.88;;;6.00;99.90;;;;;;4993740;28;20045;-80
2021/12/28 08:38:28;;;;;;;33.53;16.27;;;6.00;99.90;;;;;;5012373;28;20045;-80
2021/12/28 08:40:56;;;;;;;28.65;15.25;;;6.00;99.90;;;;;;5027409;28;20489;-80
2021/12/28 08:43:24;;;;;;;27.92;15.55;;;6.00;99.90;;;;;;4994901;28;20096;-81
2021/12/28 08:45:50;;;;;;;32.45;17.15;;;6.00;99.90;;;;;;4978656;28;20057;-82
2021/12/28 08:48:17;;;;;;;30.38;17.08;;;6.00;99.90;;;;;;5007616;28;20050;-80
2021/12/28 08:50:43;;;;;;;31.38;15.80;;;6.00;99.90;;;;;;5008519;28;20068;-80
2021/12/28 08:53:12;;;;;;;32.47;16.02;;;6.00;99.90;;;;;;5011235;28;20512;-80
2021/12/28 08:55:39;;;;;;;30.63;16.58;;;6.00;99.90;;;;;;4994093;28;20051;-80
2021/12/28 08:58:05;;;;;;;27.35;13.95;;;6.10;99.90;;;;;;4991130;28;20076;-80
2021/12/28 09:00:33;;;;;;;31.50;14.30;;;6.10;99.90;;;;;;5024587;28;20830;-80
2021/12/28 09:03:00;;;;;;;31.50;15.23;;;6.10;99.90;;;;;;5023564;28;20124;-81
2021/12/28 09:05:28;;;;;;;30.23;15.38;;;6.10;99.90;;;;;;5003570;28;20081;-80
2021/12/28 09:07:56;;;;;;;22.88;14.85;;;6.20;99.90;;;;;;5007020;28;20053;-80
2021/12/28 09:10:25;;;;;;;25.95;14.27;;;6.20;99.90;;;;;;5007921;28;20116;-80
2021/12/28 09:12:53;;;;;;;30.05;15.63;;;6.20;99.90;;;;;;5001537;28;20052;-80
2021/12/28 09:15:19;;;;;;;32.65;16.30;;;6.20;99.90;;;;;;5010368;28;20505;-80
2021/12/28 09:17:45;;;;;;;28.17;15.15;;;6.20;99.90;;;;;;4978680;28;20121;-81
2021/12/28 09:20:15;;;;;;;28.52;13.50;;;6.30;99.90;;;;;;4978778;28;20120;-81
2021/12/28 09:22:41;;;;;;;26.10;14.00;;;6.30;99.90;;;;;;5010541;28;20041;-81
2021/12/28 09:25:08;;;;;;;25.15;13.10;;;6.40;99.90;;;;;;5011534;28;20072;-80
2021/12/28 09:27:35;;;;;;;25.95;13.10;;;6.50;99.90;;;;;;4996278;28;20139;-81
2021/12/28 09:30:03;;;;;;;29.88;12.63;;;6.60;99.90;;;;;;5013028;28;20051;-80
2021/12/28 09:32:29;;;;;;;25.02;12.32;;;6.60;99.90;;;;;;4996723;28;20075;-80
2021/12/28 09:34:55;;;;;;;25.55;12.00;;;6.60;99.90;;;;;;5011845;28;20049;-81
2021/12/28 09:37:21;;;;;;;29.27;12.32;;;6.60;99.90;;;;;;4994597;28;20051;-80
2021/12/28 09:39:48;;;;;;;25.08;11.00;;;6.70;99.90;;;;;;4978462;28;20096;-80
2021/12/28 09:42:16;;;;;;;26.85;11.50;;;6.70;99.90;;;;;;4978171;28;20052;-81
2021/12/28 09:44:42;;;;;;;27.00;11.57;;;6.80;99.90;;;;;;4994290;28;20045;-80
2021/12/28 09:47:08;;;;;;;22.48;11.25;;;6.90;99.90;;;;;;5026406;28;20050;-80
2021/12/28 09:49:35;;;;;;;24.90;13.00;;;6.90;99.90;;;;;;5010314;28;20121;-80
2021/12/28 09:52:05;;;;;;;30.15;11.05;;;7.00;99.90;;;;;;5010392;28;20053;-80
2021/12/28 09:54:33;;;;;;;19.88;10.80;;;7.00;99.90;;;;;;5009947;28;20057;-80
2021/12/28 09:57:00;;;;;;;20.77;10.60;;;7.00;99.90;;;;;;5010267;28;20057;-80
2021/12/28 09:59:28;;;;;;;23.17;11.00;;;7.00;99.90;;;;;;5009780;28;20493;-80
2021/12/28 10:01:59;;;;;;;20.88;9.68;;;7.00;99.90;;;;;;4994153;28;20564;-80
2021/12/28 10:04:27;;;;;;;24.33;10.57;;;7.10;99.90;;;;;;4986303;28;20120;-80
2021/12/28 10:07:30;;;;;;;27.58;11.00;;;7.10;99.90;;;;;;4973930;28;20585;-81
2021/12/28 10:09:57;;;;;;;26.80;9.63;;;7.10;99.90;;;;;;4996556;28;20054;-80
2021/12/28 10:12:52;;;;;;;29.35;11.35;;;7.10;99.90;;;;;;5009838;28;20180;-80
2021/12/28 10:15:34;;;;;;;30.23;10.88;;;7.10;99.90;;;;;;5006551;28;20041;-80
2021/12/28 10:18:04;;;;;;;27.85;10.70;;;7.10;99.90;;;;;;5010142;28;20569;-79
2021/12/28 10:20:33;;;;;;;20.95;11.07;;;7.10;99.90;;;;;;5029782;28;20084;-79
2021/12/28 10:23:05;;;;;;;25.27;11.63;;;7.10;99.90;;;;;;5010929;28;20062;-80
2021/12/28 10:25:31;;;;;;;;;;;7.10;99.90;;;;;;4994318;28;20527;-79
2021/12/28 10:28:22;;;;;;;33.38;10.98;;;7.10;99.90;;;;;;4998062;28;20063;-80
2021/12/28 10:30:54;;;;;;;26.13;12.02;;;7.10;99.90;;;;;;5019325;28;20513;-80
2021/12/28 10:33:25;;;;;;;29.10;10.85;;;7.10;99.90;;;;;;5029630;28;20088;-81
2021/12/28 10:35:53;;;;;;;25.42;11.55;;;7.20;99.90;;;;;;5029925;28;20038;-80
2021/12/28 10:38:27;;;;;;;36.47;12.48;;;7.20;99.90;;;;;;4998080;28;20041;-80
2021/12/28 10:40:57;;;;;;;27.00;13.20;;;7.10;99.90;;;;;;4997496;28;20045;-80
2021/12/28 10:43:27;;;;;;;33.28;11.52;;;7.20;99.90;;;;;;5013458;28;20057;-80
2021/12/28 10:46:06;;;;;;;30.38;13.40;;;7.20;99.90;;;;;;5029834;28;20045;-80
2021/12/28 10:48:40;;;;;;;27.73;13.05;;;7.30;99.90;;;;;;5027042;28;20049;-80
2021/12/28 10:51:10;;;;;;;33.03;12.77;;;7.30;99.90;;;;;;5019794;28;20757;-80
2021/12/28 10:56:36;;;;;;;27.92;13.57;;;7.30;99.90;;;;;;5011809;28;20136;-80
2021/12/28 10:59:12;;;;;;;28.30;15.50;;;7.30;99.90;;;;;;5021227;28;20417;-80
2021/12/28 11:01:39;;;;;;;30.27;16.63;;;7.30;99.90;;;;;;4981369;28;20084;-80
2021/12/28 11:04:09;;;;;;;29.77;14.65;;;7.30;99.90;;;;;;5013115;28;20045;-80
2021/12/28 11:06:40;;;;;;;34.35;17.15;;;7.30;99.90;;;;;;5029007;28;20397;-80
2021/12/28 11:09:11;;;;;;;36.85;17.23;;;7.30;99.90;;;;;;5029087;28;20084;-80
2021/12/28 11:11:40;;;;;;;32.28;16.83;;;7.30;99.90;;;;;;4996185;28;20046;-80
2021/12/28 11:14:13;;;;;;;31.20;16.40;;;7.30;99.90;;;;;;5009547;28;20081;-80
2021/12/28 11:16:40;;;;;;;31.67;16.27;;;7.40;99.90;;;;;;5013321;28;20095;-76
2021/12/28 11:19:09;;;;;;;33.80;16.10;;;7.40;99.90;;;;;;5007011;28;20063;-80
2021/12/28 11:21:35;;;;;;;34.42;17.75;;;7.40;99.90;;;;;;5011041;28;20125;-84
2021/12/28 11:24:06;;;;;;;38.67;17.73;;;7.40;99.90;;;;;;5018882;28;20140;-80
2021/12/28 11:26:52;;;;;;;30.27;17.23;;;7.50;99.90;;;;;;5025446;28;20124;-81
2021/12/28 11:29:28;;;;;;;32.65;16.67;;;7.50;99.90;;;;;;4975875;28;20165;-80
2021/12/28 11:32:01;;;;;;;35.58;18.83;;;7.50;99.90;;;;;;5030469;28;20044;-82
2021/12/28 11:34:31;;;;;;;34.10;17.73;;;7.50;99.90;;;;;;5043780;28;20072;-82
2021/12/28 11:37:03;;;;;;;36.50;18.45;;;7.40;99.90;;;;;;5023348;28;20045;-82
2021/12/28 11:39:35;;;;;;;32.40;17.80;;;7.50;99.90;;;;;;5032345;28;20521;-82
2021/12/28 11:42:03;;;;;;;24.23;14.32;;;7.50;99.90;;;;;;5020777;28;20040;-83
2021/12/28 11:44:31;;;;;;;29.95;18.95;;;7.50;99.90;;;;;;5011965;28;20045;-82
2021/12/28 11:46:59;;;;;;;31.20;17.65;;;7.60;99.90;;;;;;5010865;28;20037;-83
2021/12/28 11:49:28;;;;;;;33.55;16.73;;;7.60;99.90;;;;;;5018830;28;20056;-82
2021/12/28 11:51:58;;;;;;;28.33;16.95;;;7.60;99.90;;;;;;4996149;28;20124;-83
2021/12/28 11:54:26;;;;;;;23.92;15.88;;;7.60;99.90;;;;;;5001941;28;20041;-83
2021/12/28 11:57:00;;;;;;;32.22;17.80;;;7.60;99.90;;;;;;5021450;28;20118;-82
2021/12/28 11:59:28;;;;;;;31.05;17.63;;;7.60;99.90;;;;;;4972410;28;20056;-82
2021/12/28 12:02:06;;;;;;;28.20;18.13;;;7.60;99.90;;;;;;5009037;28;20041;-81
2021/12/28 12:04:33;;;;;;;32.90;17.10;;;7.60;99.90;;;;;;5005084;28;20045;-80
2021/12/28 12:07:05;;;;;;;31.50;18.92;;;7.60;99.90;;;;;;5047170;28;20123;-82
2021/12/28 12:09:33;;;;;;;30.17;17.30;;;7.60;99.90;;;;;;5030018;28;20049;-82
2021/12/28 12:12:15;;;;;;;24.38;15.80;;;7.60;99.90;;;;;;5026174;28;20053;-80
2021/12/28 12:14:54;;;;;;;32.85;19.65;;;7.60;99.90;;;;;;5001474;28;20041;-80
2021/12/28 12:17:28;;;;;;;33.10;20.77;;;7.70;99.90;;;;;;4962881;28;20053;-80
2021/12/28 12:19:55;;;;;;;;;;;7.70;99.90;;;;;;4990622;28;20155;-81
2021/12/28 12:22:35;;;;;;;33.13;19.88;;;7.70;99.90;;;;;;4993971;28;19925;-81
2021/12/28 12:25:08;;;;;;;36.55;20.92;;;7.70;99.90;;;;;;4986122;28;20580;-81
2021/12/28 12:27:55;;;;;;;39.80;20.20;;;7.70;99.90;;;;;;4998802;28;20477;-80
2021/12/28 12:30:21;;;;;;;36.28;20.35;;;7.70;99.90;;;;;;4987025;28;20496;-80
2021/12/28 12:33:00;;;;;;;36.30;22.65;;;7.80;99.90;;;;;;5004020;28;20099;-81
2021/12/28 12:35:40;;;;;;;35.28;21.75;;;7.70;99.90;;;;;;4984066;28;20048;-82
2021/12/28 12:38:12;;;;;;;33.95;19.27;;;7.80;99.90;;;;;;5007954;28;20045;-80
2021/12/28 12:41:09;;;;;;;39.33;23.25;;;7.80;99.90;;;;;;4992296;28;20045;-82
2021/12/28 12:43:35;;;;;;;38.50;22.98;;;7.80;99.90;;;;;;4979332;28;20045;-82